Terminal Aerodrome Forecast
Issued by NWS Cleveland, OH

Home | Current Version | Previous Version | Graphics & Text | Print | Product List | Glossary On
Versions: 1 2 3 4 5 6 7 8 9 10 11 12 13
000
FTUS41 KCLE 302333
TAFTOL
TAF
KTOL 302333Z 0100/0124 26008KT P6SM VCTS SCT040CB
      TEMPO 0100/0101 5SM -TSRA BR BKN040CB OVC080
     FM010300 28007KT P6SM SCT015 BKN050
      TEMPO 0103/0107 BKN015 OVC050
     FM010700 29006KT 4SM BR OVC015
     FM011500 29008KT P6SM BKN025
     FM011700 30006KT P6SM BKN040=

USA.gov is the U.S. government's official web portal to all federal, state and local government web resources and services.